Milouin — FT9009 — position and weather

sailwx.info

Track history (hours):
 
Tides and Currents Weather Stations Pressure Air Temp Water Temp Dewpoint Dewpoint Depression Visibility Wind Speed Wind Dir Waves Ship Positions

Milouin

Last reported at 2017-Jun-29 15:30 UTC. Time now 2017-Jun-29 15:58 UTC.
Position N 47°17' W 002°00'.

Length 36 m; draft 2.5 m.

Type: Ship. MMSI: 227003190.

Date/timePositionNaut miles runAvg speedWind from/ knotsBaromVisibWave heightAir tempDewpointWater temp
2017-Jun-29 15:30N 47°17' W 002°00'4 8.8
2017-Jun-29 15:00N 47°17' W 001°54'3 3.2
2017-Jun-29 14:00N 47°14' W 001°50'0 0.2
2017-Jun-29 13:29N 47°14' W 001°51'0 1.0
2017-Jun-29 13:00N 47°15' W 001°51'1 1.5
2017-Jun-29 12:30N 47°14' W 001°50'0 0.7
2017-Jun-29 12:00N 47°15' W 001°51'0 0.3
2017-Jun-29 11:31N 47°15' W 001°51'0 0.7
2017-Jun-29 11:00N 47°14' W 001°50'0 0.9
2017-Jun-29 10:30N 47°15' W 001°51'3 5.9
2017-Jun-29 10:00N 47°13' W 001°48'1 2.5
2017-Jun-29 09:30N 47°12' W 001°46'0 0.4
2017-Jun-29 09:00N 47°12' W 001°46'3 5.1
2017-Jun-29 08:30N 47°12' W 001°42'2 3.8
2017-Jun-29 08:00N 47°12' W 001°39'1 1.7
2017-Jun-29 07:30N 47°12' W 001°38'0 0.0
2017-Jun-29 07:00N 47°12' W 001°38'1 2.0
2017-Jun-29 06:31N 47°12' W 001°39'612.0
2017-Jun-29 06:00N 47°13' W 001°48'611.2
2017-Jun-29 05:30N 47°17' W 001°54'5 2.1
2017-Jun-29 03:15N 47°17' W 002°01'0 0.0
2017-Jun-29 02:51N 47°17' W 002°01'0 0.0
2017-Jun-29 02:27N 47°17' W 002°01'0 0.0
2017-Jun-29 01:09N 47°17' W 002°01'0 0.0
2017-Jun-29 00:57N 47°17' W 002°01'0 0.0
2017-Jun-29 00:21N 47°17' W 002°01'0 0.0
2017-Jun-28 23:45N 47°17' W 002°01'0 0.0
2017-Jun-28 23:21N 47°17' W 002°01'0 0.0
2017-Jun-28 22:51N 47°17' W 002°01'0 0.0
2017-Jun-28 22:18N 47°17' W 002°01'0 0.0
2017-Jun-28 21:57N 47°17' W 002°01'0 0.0
2017-Jun-28 21:27N 47°17' W 002°01'0 0.0
2017-Jun-28 19:57N 47°17' W 002°01'0 0.0
2017-Jun-28 19:30N 47°17' W 002°01'0 0.0
2017-Jun-28 19:00N 47°17' W 002°01'0 0.0
2017-Jun-28 18:27N 47°17' W 002°01'0 0.0
2017-Jun-28 17:51N 47°17' W 002°01'0 0.0
2017-Jun-28 17:21N 47°17' W 002°01'0 0.0
2017-Jun-28 16:57N 47°17' W 002°01'0 0.0
2017-Jun-28 14:49N 47°17' W 002°01'2 6.2
2017-Jun-28 14:30N 47°17' W 001°58'3 2.6
2017-Jun-28 13:30N 47°17' W 001°55'0 0.9
2017-Jun-28 13:00N 47°17' W 001°54'1 1.5
2017-Jun-28 12:30N 47°17' W 001°55'0 0.0
2017-Jun-28 11:59N 47°17' W 001°55'1 1.2
2017-Jun-28 11:30N 47°17' W 001°54'1 1.2
2017-Jun-28 11:00N 47°17' W 001°55'3 5.5
2017-Jun-28 10:30N 47°16' W 001°51'5 9.3
2017-Jun-28 10:00N 47°12' W 001°46'1 1.0
2017-Jun-28 09:30N 47°12' W 001°46'2 4.8
2017-Jun-28 09:00N 47°12' W 001°42'3 5.0
2017-Jun-28 08:25N 47°12' W 001°38'0 0.1
2017-Jun-28 07:58N 47°12' W 001°38'0 0.1
2017-Jun-28 07:22N 47°12' W 001°38'1 3.4
2017-Jun-28 07:00N 47°12' W 001°40'4 6.9
2017-Jun-28 06:29N 47°12' W 001°45'2 3.7
2017-Jun-28 06:00N 47°13' W 001°48'510.7
2017-Jun-28 05:30N 47°17' W 001°53'5 5.5
2017-Jun-28 04:31N 47°17' W 002°01'0 0.0
2017-Jun-28 04:04N 47°17' W 002°01'0 0.0
2017-Jun-28 03:55N 47°17' W 002°01'0 0.0
2017-Jun-28 03:16N 47°17' W 002°01'0 0.0
2017-Jun-28 02:46N 47°17' W 002°01'0 0.0
2017-Jun-28 02:25N 47°17' W 002°01'0 0.0
2017-Jun-28 01:55N 47°17' W 002°01'0 0.0
2017-Jun-28 01:25N 47°17' W 002°01'0 0.0
2017-Jun-28 00:55N 47°17' W 002°01'0 0.0
2017-Jun-28 00:13N 47°17' W 002°01'0 0.0
2017-Jun-27 23:49N 47°17' W 002°01'0 0.0
2017-Jun-27 23:19N 47°17' W 002°01'0 0.0
2017-Jun-27 22:55N 47°17' W 002°01'0 0.0
2017-Jun-27 22:25N 47°17' W 002°01'0 0.0
2017-Jun-27 21:55N 47°17' W 002°01'0 0.0
2017-Jun-27 21:22N 47°17' W 002°01'0 0.0
2017-Jun-27 20:58N 47°17' W 002°01'0 0.0
2017-Jun-27 20:25N 47°17' W 002°01'0 0.0
2017-Jun-27 19:58N 47°17' W 002°01'0 0.0
2017-Jun-27 19:28N 47°17' W 002°01'0 0.0
2017-Jun-27 18:49N 47°17' W 002°01'0 0.0
2017-Jun-27 18:25N 47°17' W 002°01'0 0.0
2017-Jun-27 16:25N 47°17' W 002°01'0 0.0
2017-Jun-27 15:55N 47°17' W 002°01'0 0.0
2017-Jun-27 13:58N 47°17' W 002°01'2 3.3
2017-Jun-27 13:30N 47°18' W 002°03'5 6.9
2017-Jun-27 12:47N 47°17' W 002°10'2 6.3
2017-Jun-27 12:30N 47°16' W 002°12'0 0.4
2017-Jun-27 11:43N 47°16' W 002°12'0 0.2
2017-Jun-27 11:25N 47°16' W 002°12'0 0.2
2017-Jun-27 10:58N 47°16' W 002°12'0 0.1
2017-Jun-27 10:22N 47°16' W 002°12'0 0.2
2017-Jun-27 09:58N 47°16' W 002°12'0 0.1
2017-Jun-27 09:28N 47°16' W 002°12'0 0.0
2017-Jun-27 08:58N 47°16' W 002°12'0 0.0
2017-Jun-27 08:25N 47°16' W 002°12'0 0.2
2017-Jun-27 07:55N 47°16' W 002°12'0 0.3
2017-Jun-27 07:30N 47°16' W 002°12'0 0.3
2017-Jun-27 07:00N 47°16' W 002°12'0 0.7
2017-Jun-27 06:30N 47°16' W 002°12'4 8.3
2017-Jun-27 06:00N 47°18' W 002°06'4 7.0
2017-Jun-27 05:30N 47°17' W 002°01'0 0.0
2017-Jun-27 05:00N 47°17' W 002°01'0 0.0
2017-Jun-27 04:30N 47°17' W 002°01'0 0.0
2017-Jun-27 04:00N 47°17' W 002°01'0 0.0
2017-Jun-27 03:27N 47°17' W 002°01'0 0.0
2017-Jun-27 03:00N 47°17' W 002°01'0 0.0
2017-Jun-27 02:30N 47°17' W 002°01'0 0.0
2017-Jun-27 02:00N 47°17' W 002°01'0 0.0
2017-Jun-27 01:30N 47°17' W 002°01'0 0.0
2017-Jun-27 01:00N 47°17' W 002°01'0 0.0
2017-Jun-27 00:27N 47°17' W 002°01'0 0.0
2017-Jun-27 00:00N 47°17' W 002°01'0 0.0
2017-Jun-26 23:30N 47°17' W 002°01'0 0.0
2017-Jun-26 22:54N 47°17' W 002°01'0 0.0
2017-Jun-26 22:30N 47°17' W 002°01'0 0.0
2017-Jun-26 22:00N 47°17' W 002°01'0 0.0
2017-Jun-26 21:30N 47°17' W 002°01'0 0.0
2017-Jun-26 20:57N 47°17' W 002°01'0 0.0
2017-Jun-26 20:27N 47°17' W 002°01'0 0.0
2017-Jun-26 20:00N 47°17' W 002°01'0 0.0
2017-Jun-26 19:27N 47°17' W 002°01'0 0.0
2017-Jun-26 19:00N 47°17' W 002°01'0 0.0
2017-Jun-26 18:30N 47°17' W 002°01'0 0.0
2017-Jun-26 18:00N 47°17' W 002°01'0 0.0
2017-Jun-26 17:27N 47°17' W 002°01'0 0.0
2017-Jun-26 16:54N 47°17' W 002°01'0 0.0
2017-Jun-26 16:27N 47°17' W 002°01'0 0.0
2017-Jun-26 16:00N 47°17' W 002°01'0 0.0
2017-Jun-26 15:24N 47°17' W 002°01'0 0.0
2017-Jun-26 15:00N 47°17' W 002°01'0 0.0
2017-Jun-26 14:30N 47°17' W 002°01'0 0.0
2017-Jun-26 13:30N 47°17' W 002°01'0 0.0
2017-Jun-26 12:51N 47°17' W 002°01'0 0.5
2017-Jun-26 12:30N 47°17' W 002°01'3 5.5
2017-Jun-26 12:00N 47°18' W 002°05'1 2.0
2017-Jun-26 11:30N 47°18' W 002°07'0 0.3
2017-Jun-26 10:57N 47°18' W 002°07'0 0.0
2017-Jun-26 10:30N 47°18' W 002°07'0 0.3
2017-Jun-26 10:00N 47°18' W 002°07'0 0.3
2017-Jun-26 09:29N 47°18' W 002°07'0 0.3
2017-Jun-26 08:55N 47°18' W 002°07'0 0.1
2017-Jun-26 08:28N 47°18' W 002°07'0 0.1
2017-Jun-26 08:00N 47°18' W 002°07'0 0.1
2017-Jun-26 07:30N 47°18' W 002°07'0 0.1
2017-Jun-26 06:58N 47°18' W 002°07'0 0.2
2017-Jun-26 06:27N 47°18' W 002°07'0 0.1
2017-Jun-26 06:01N 47°18' W 002°07'1 1.2
2017-Jun-26 05:30N 47°18' W 002°06'3 6.5
2017-Jun-26 04:59N 47°17' W 002°01'0 0.0
2017-Jun-26 04:29N 47°17' W 002°01'0 0.0
2017-Jun-26 03:59N 47°17' W 002°01'0 0.0
2017-Jun-26 03:29N 47°17' W 002°01'0 0.0
2017-Jun-26 02:59N 47°17' W 002°01'0 0.0
2017-Jun-26 02:26N 47°17' W 002°01'0 0.0
2017-Jun-26 01:59N 47°17' W 002°01'0 0.0
2017-Jun-26 01:29N 47°17' W 002°01'0 0.0
2017-Jun-26 00:59N 47°17' W 002°01'0 0.0
2017-Jun-26 00:29N 47°17' W 002°01'0 0.0
2017-Jun-25 23:56N 47°17' W 002°01'0 0.0
2017-Jun-25 23:29N 47°17' W 002°01'0 0.0
2017-Jun-25 22:59N 47°17' W 002°01'0 0.0
2017-Jun-25 22:29N 47°17' W 002°01'0 0.0
2017-Jun-25 21:59N 47°17' W 002°01'0 0.0
2017-Jun-25 21:26N 47°17' W 002°01'0 0.0
2017-Jun-25 20:59N 47°17' W 002°01'0 0.0
2017-Jun-25 20:29N 47°17' W 002°01'0 0.0
2017-Jun-25 19:59N 47°17' W 002°01'0 0.0
2017-Jun-25 19:29N 47°17' W 002°01'0 0.0
2017-Jun-25 18:59N 47°17' W 002°01'0 0.0
2017-Jun-25 18:29N 47°17' W 002°01'0 0.0
2017-Jun-25 17:56N 47°17' W 002°01'0 0.0
2017-Jun-25 17:29N 47°17' W 002°01'0 0.0
2017-Jun-25 16:59N 47°17' W 002°01'0 0.0
2017-Jun-25 16:29N 47°17' W 002°01'0 0.0
2017-Jun-25 15:59N 47°17' W 002°01'0 0.0
2017-Jun-25 15:29N 47°17' W 002°01'0 0.0
2017-Jun-25 14:59N 47°17' W 002°01'0 0.0
2017-Jun-25 14:23N 47°17' W 002°01'0 0.0
2017-Jun-25 13:29N 47°17' W 002°01'0 0.0
2017-Jun-25 12:59N 47°17' W 002°01'0 0.0
2017-Jun-25 12:30N 47°17' W 002°01'3 6.7
2017-Jun-25 12:00N 47°18' W 002°06'0 1.0
2017-Jun-25 11:30N 47°18' W 002°07'0 0.3
2017-Jun-25 11:00N 47°18' W 002°06'0 0.0
2017-Jun-25 10:29N 47°18' W 002°06'0 0.3
2017-Jun-25 09:59N 47°18' W 002°07'0 0.3
2017-Jun-25 09:30N 47°18' W 002°07'0 0.2
2017-Jun-25 09:01N 47°18' W 002°07'0 0.0
2017-Jun-25 08:31N 47°18' W 002°07'0 0.0
2017-Jun-25 08:01N 47°18' W 002°07'0 0.1
2017-Jun-25 07:30N 47°18' W 002°07'0 0.2
2017-Jun-25 06:52N 47°18' W 002°07'0 0.3
2017-Jun-25 06:29N 47°18' W 002°07'1 1.2
2017-Jun-25 05:59N 47°18' W 002°08'1 2.6
2017-Jun-25 05:30N 47°18' W 002°06'3 6.6
2017-Jun-25 05:00N 47°17' W 002°01'0 0.0
2017-Jun-25 04:30N 47°17' W 002°01'0 0.0
2017-Jun-25 03:57N 47°17' W 002°01'0 0.0
2017-Jun-25 03:27N 47°17' W 002°01'0 0.0
2017-Jun-25 03:00N 47°17' W 002°01'0 0.0
2017-Jun-25 02:24N 47°17' W 002°01'0 0.0
2017-Jun-25 02:00N 47°17' W 002°01'0 0.0
2017-Jun-25 01:30N 47°17' W 002°01'0 0.0
2017-Jun-25 01:00N 47°17' W 002°01'0 0.0
2017-Jun-25 00:30N 47°17' W 002°01'0 0.0
2017-Jun-24 23:54N 47°17' W 002°01'0 0.0
2017-Jun-24 23:27N 47°17' W 002°01'0 0.0
2017-Jun-24 23:00N 47°17' W 002°01'0 0.0
2017-Jun-24 22:30N 47°17' W 002°01'0 0.0
2017-Jun-24 21:57N 47°17' W 002°01'0 0.0
2017-Jun-24 21:30N 47°17' W 002°01'0 0.0
2017-Jun-24 20:57N 47°17' W 002°01'0 0.0
2017-Jun-24 20:30N 47°17' W 002°01'0 0.0
2017-Jun-24 19:57N 47°17' W 002°01'0 0.0
2017-Jun-24 19:30N 47°17' W 002°01'0 0.0
2017-Jun-24 19:00N 47°17' W 002°01'0 0.0
2017-Jun-24 18:30N 47°17' W 002°01'0 0.0
2017-Jun-24 17:57N 47°17' W 002°01'0 0.0
2017-Jun-24 17:27N 47°17' W 002°01'0 0.0
2017-Jun-24 16:57N 47°17' W 002°01'0 0.0
2017-Jun-24 16:27N 47°17' W 002°01'0 0.0
2017-Jun-24 16:00N 47°17' W 002°01'0 0.0
2017-Jun-24 15:27N 47°17' W 002°01'0 0.0
2017-Jun-24 15:00N 47°17' W 002°01'0 0.0
2017-Jun-24 14:00N 47°17' W 002°01'0 0.0
2017-Jun-24 13:30N 47°17' W 002°01'0 0.0
2017-Jun-24 12:57N 47°17' W 002°01'0 0.0
2017-Jun-24 11:54N 47°17' W 002°01'2 4.5
2017-Jun-24 11:30N 47°18' W 002°04'2 4.4
2017-Jun-24 11:00N 47°18' W 002°07'0 0.2
2017-Jun-24 10:27N 47°18' W 002°07'0 0.1
2017-Jun-24 10:00N 47°18' W 002°07'0 0.0
2017-Jun-24 09:30N 47°18' W 002°07'0 0.0
2017-Jun-24 08:59N 47°18' W 002°07'0 0.1
2017-Jun-24 08:30N 47°18' W 002°07'0 0.0
2017-Jun-24 08:00N 47°18' W 002°07'0 0.1
2017-Jun-24 07:29N 47°18' W 002°07'0 0.1
2017-Jun-24 06:56N 47°18' W 002°07'0 0.1
2017-Jun-24 06:29N 47°18' W 002°07'0 0.1
2017-Jun-24 05:58N 47°18' W 002°07'0 0.4
2017-Jun-24 05:30N 47°18' W 002°07'4 4.0
2017-Jun-24 04:33N 47°17' W 002°01'0 0.0
2017-Jun-24 04:15N 47°17' W 002°01'0 0.0
2017-Jun-24 03:09N 47°17' W 002°01'0 0.0
2017-Jun-24 02:57N 47°17' W 002°01'0 0.0
2017-Jun-24 02:30N 47°17' W 002°01'0 0.0
2017-Jun-24 01:54N 47°17' W 002°01'0 0.0
2017-Jun-24 01:30N 47°17' W 002°01'0 0.0
2017-Jun-24 00:57N 47°17' W 002°01'0 0.0
2017-Jun-24 00:24N 47°17' W 002°01'0 0.0
2017-Jun-23 23:48N 47°17' W 002°01'0 0.0
2017-Jun-23 23:27N 47°17' W 002°01'0 0.0
2017-Jun-23 22:54N 47°17' W 002°01'0 0.0
2017-Jun-23 20:00N 47°17' W 002°01'0 0.0
2017-Jun-23 19:12N 47°17' W 002°01'0 0.0
2017-Jun-23 18:54N 47°17' W 002°01'0 0.0
2017-Jun-23 18:24N 47°17' W 002°01'0 0.0
2017-Jun-23 17:54N 47°17' W 002°01'0 0.0
2017-Jun-23 17:24N 47°17' W 002°01'0 0.0
2017-Jun-23 16:45N 47°17' W 002°01'0 0.0
2017-Jun-23 16:30N 47°17' W 002°01'0 0.6
2017-Jun-23 15:58N 47°18' W 002°01'0 0.1
2017-Jun-23 15:28N 47°18' W 002°01'0 0.3
2017-Jun-23 15:00N 47°18' W 002°01'0 0.1
2017-Jun-23 11:41N 47°17' W 002°01'0 0.0
2017-Jun-23 10:41N 47°17' W 002°01'0 0.0
2017-Jun-23 09:32N 47°17' W 002°01'0 1.0
2017-Jun-23 09:29N 47°17' W 002°01'0 0.6
2017-Jun-23 08:58N 47°18' W 002°01'0 0.1
2017-Jun-23 08:19N 47°18' W 002°01'0 0.4
2017-Jun-23 07:57N 47°18' W 002°01'0 0.1
2017-Jun-23 07:27N 47°18' W 002°01'0 0.6
2017-Jun-23 07:00N 47°18' W 002°01'0 0.1
2017-Jun-23 06:30N 47°18' W 002°01'0 0.1
2017-Jun-23 06:00N 47°18' W 002°01'0 0.3
2017-Jun-23 05:30N 47°18' W 002°01'0 0.2
2017-Jun-23 04:21N 47°17' W 002°01'0 0.0
2017-Jun-23 04:00N 47°17' W 002°01'0 0.0
2017-Jun-23 03:30N 47°17' W 002°01'0 0.0
2017-Jun-23 03:00N 47°17' W 002°01'0 0.0
2017-Jun-23 02:30N 47°17' W 002°01'0 0.0
2017-Jun-23 02:00N 47°17' W 002°01'0 0.0
2017-Jun-23 00:48N 47°17' W 002°01'0 0.0
2017-Jun-22 16:22N 47°17' W 002°01'0 0.6
2017-Jun-22 15:54N 47°18' W 002°01'0 0.7
2017-Jun-22 15:30N 47°18' W 002°01'0 0.2
2017-Jun-22 14:58N 47°18' W 002°01'1 1.3
2017-Jun-22 14:30N 47°18' W 002°02'1 0.3
2017-Jun-22 12:39N 47°17' W 002°01'0 0.0
2017-Jun-22 12:27N 47°17' W 002°01'0 0.0
2017-Jun-22 11:57N 47°17' W 002°01'0 0.0
2017-Jun-22 11:15N 47°17' W 002°01'0 0.0
2017-Jun-22 10:57N 47°17' W 002°01'0 0.0
2017-Jun-22 09:15N 47°17' W 002°01'0 0.0
2017-Jun-22 09:00N 47°17' W 002°01'3 5.9
2017-Jun-22 08:30N 47°18' W 002°05'1 1.2
2017-Jun-22 07:54N 47°18' W 002°06'0 0.2
2017-Jun-22 07:30N 47°18' W 002°06'0 0.4
2017-Jun-22 07:00N 47°18' W 002°06'0 0.0
2017-Jun-22 06:30N 47°18' W 002°06'0 0.0
2017-Jun-22 06:01N 47°18' W 002°06'0 0.0
2017-Jun-22 05:30N 47°18' W 002°06'4 6.8
2017-Jun-22 04:58N 47°17' W 002°01'0 0.0
2017-Jun-22 04:28N 47°17' W 002°01'0 0.0
2017-Jun-22 03:58N 47°17' W 002°01'0 0.0
2017-Jun-22 03:28N 47°17' W 002°01'0 0.0
2017-Jun-22 02:58N 47°17' W 002°01'0 0.0
2017-Jun-22 02:28N 47°17' W 002°01'0 0.0
2017-Jun-22 01:55N 47°17' W 002°01'0 0.0
2017-Jun-22 01:28N 47°17' W 002°01'0 0.0
2017-Jun-22 00:49N 47°17' W 002°01'0 0.0
2017-Jun-22 00:28N 47°17' W 002°01'0 0.0
2017-Jun-21 23:58N 47°17' W 002°01'0 0.0
2017-Jun-21 23:28N 47°17' W 002°01'0 0.0
2017-Jun-21 22:58N 47°17' W 002°01'0 0.0
2017-Jun-21 22:25N 47°17' W 002°01'0 0.0
2017-Jun-21 21:58N 47°17' W 002°01'0 0.0
2017-Jun-21 21:28N 47°17' W 002°01'0 0.0
2017-Jun-21 20:58N 47°17' W 002°01'0 0.0
2017-Jun-21 20:25N 47°17' W 002°01'0 0.0
2017-Jun-21 19:55N 47°17' W 002°01'0 0.0
2017-Jun-21 19:28N 47°17' W 002°01'0 0.0
2017-Jun-21 18:58N 47°17' W 002°01'0 0.0
2017-Jun-21 18:28N 47°17' W 002°01'0 0.0
2017-Jun-21 17:37N 47°17' W 002°01'0 0.0
2017-Jun-21 17:28N 47°17' W 002°01'0 0.0
2017-Jun-21 16:52N 47°17' W 002°01'0 0.0
2017-Jun-21 16:30N 47°17' W 002°01'1 1.0
2017-Jun-21 16:00N 47°18' W 002°02'1 1.5
2017-Jun-21 15:26N 47°18' W 002°03'0 0.4
2017-Jun-21 14:58N 47°18' W 002°03'2 5.2
2017-Jun-21 14:30N 47°17' W 001°60'8 7.5
2017-Jun-21 13:29N 47°14' W 001°50'3 7.0
2017-Jun-21 13:00N 47°12' W 001°45'3 6.3
2017-Jun-21 12:31N 47°12' W 001°41'3 5.4
2017-Jun-21 12:00N 47°12' W 001°37'1 2.3
2017-Jun-21 11:31N 47°12' W 001°38'4 7.3
2017-Jun-21 11:00N 47°12' W 001°43'4 7.0
2017-Jun-21 10:30N 47°13' W 001°49'4 7.1
2017-Jun-21 10:00N 47°16' W 001°52'3 6.7
2017-Jun-21 09:30N 47°17' W 001°56'3 6.0
2017-Jun-21 09:00N 47°17' W 002°01'3 5.2
2017-Jun-21 08:30N 47°18' W 002°04'2 1.8
2017-Jun-21 07:37N 47°18' W 002°07'0 0.4
2017-Jun-21 07:28N 47°18' W 002°07'0 0.1
2017-Jun-21 07:00N 47°18' W 002°07'3 4.8
2017-Jun-21 06:29N 47°18' W 002°03'0 0.1
2017-Jun-21 05:55N 47°18' W 002°03'0 0.2
2017-Jun-21 05:30N 47°18' W 002°03'1 2.7
2017-Jun-21 04:58N 47°17' W 002°01'0 0.0
2017-Jun-21 04:28N 47°17' W 002°01'0 0.0
2017-Jun-21 03:58N 47°17' W 002°01'0 0.0
2017-Jun-21 03:28N 47°17' W 002°01'0 0.0
2017-Jun-21 02:58N 47°17' W 002°01'0 0.0
2017-Jun-21 02:28N 47°17' W 002°01'0 0.0
2017-Jun-21 01:58N 47°17' W 002°01'0 0.0
2017-Jun-21 01:28N 47°17' W 002°01'0 0.0
2017-Jun-21 00:58N 47°17' W 002°01'0 0.0
2017-Jun-21 00:28N 47°17' W 002°01'0 0.0
2017-Jun-20 23:52N 47°17' W 002°01'0 0.0
2017-Jun-20 23:28N 47°17' W 002°01'0 0.0
2017-Jun-20 22:55N 47°17' W 002°01'0 0.0
2017-Jun-20 22:28N 47°17' W 002°01'0 0.0
2017-Jun-20 21:58N 47°17' W 002°01'0 0.0
2017-Jun-20 21:28N 47°17' W 002°01'0 0.0
2017-Jun-20 20:55N 47°17' W 002°01'0 0.0
2017-Jun-20 20:28N 47°17' W 002°01'0 0.0
2017-Jun-20 19:58N 47°17' W 002°01'0 0.0
2017-Jun-20 19:28N 47°17' W 002°01'0 0.0
2017-Jun-20 10:19N 47°17' W 002°01'0 0.0
2017-Jun-20 09:04N 47°17' W 002°01'0 0.0
2017-Jun-20 08:55N 47°17' W 002°01'0 0.0
2017-Jun-20 08:28N 47°17' W 002°01'0 0.0
2017-Jun-20 07:58N 47°17' W 002°01'0 0.0
2017-Jun-20 07:25N 47°17' W 002°01'0 0.0
2017-Jun-20 06:58N 47°17' W 002°01'0 0.0
2017-Jun-20 06:25N 47°17' W 002°01'0 0.0
2017-Jun-20 05:55N 47°17' W 002°01'0 0.0
2017-Jun-20 05:25N 47°17' W 002°01'0 0.0
2017-Jun-20 04:49N 47°17' W 002°01'0 0.0
2017-Jun-20 04:25N 47°17' W 002°01'0 0.0
2017-Jun-20 03:55N 47°17' W 002°01'0 0.0
2017-Jun-20 03:28N 47°17' W 002°01'0 0.0
2017-Jun-20 02:58N 47°17' W 002°01'0 0.0
2017-Jun-20 01:58N 47°17' W 002°01'0 0.0
2017-Jun-20 01:28N 47°17' W 002°01'0 0.0
2017-Jun-20 00:55N 47°17' W 002°01'0 0.0
2017-Jun-20 00:16N 47°17' W 002°01'0 0.0
2017-Jun-19 23:52N 47°17' W 002°01'0 0.0
2017-Jun-19 23:28N 47°17' W 002°01'0 0.0
2017-Jun-19 22:58N 47°17' W 002°01'0 0.0
2017-Jun-19 22:28N 47°17' W 002°01'0 0.0
2017-Jun-19 21:58N 47°17' W 002°01'0 0.0
2017-Jun-19 21:28N 47°17' W 002°01'0 0.0
2017-Jun-19 20:58N 47°17' W 002°01'0 0.0
2017-Jun-19 20:28N 47°17' W 002°01'0 0.0
2017-Jun-19 19:58N 47°17' W 002°01'0 0.0
2017-Jun-19 19:28N 47°17' W 002°01'0 0.0
2017-Jun-19 18:49N 47°17' W 002°01'0 0.0
2017-Jun-19 18:16N 47°17' W 002°01'0 0.0
2017-Jun-19 17:49N 47°17' W 002°01'1 0.4
2017-Jun-19 15:52N 47°18' W 002°02'  
Track history (hours):
 
Tides and Currents Weather Stations Pressure Air Temp Water Temp Dewpoint Dewpoint Depression Visibility Wind Speed Wind Dir Waves Ship Positions

Milouin

Last reported at 2017-Jun-29 15:30 UTC. Time now 2017-Jun-29 15:58 UTC.
Position N 47°17' W 002°00'.

Length 36 m; draft 2.5 m.

Type: Ship. MMSI: 227003190.

Date/timePositionNaut miles runAvg speedWind from/ knotsBaromVisibWave heightAir tempDewpointWater temp
2017-Jun-29 15:30N 47°17' W 002°00'4 8.8
2017-Jun-29 15:00N 47°17' W 001°54'3 3.2
2017-Jun-29 14:00N 47°14' W 001°50'0 0.2
2017-Jun-29 13:29N 47°14' W 001°51'0 1.0
2017-Jun-29 13:00N 47°15' W 001°51'1 1.5
2017-Jun-29 12:30N 47°14' W 001°50'0 0.7
2017-Jun-29 12:00N 47°15' W 001°51'0 0.3
2017-Jun-29 11:31N 47°15' W 001°51'0 0.7
2017-Jun-29 11:00N 47°14' W 001°50'0 0.9
2017-Jun-29 10:30N 47°15' W 001°51'3 5.9
2017-Jun-29 10:00N 47°13' W 001°48'1 2.5
2017-Jun-29 09:30N 47°12' W 001°46'0 0.4
2017-Jun-29 09:00N 47°12' W 001°46'3 5.1
2017-Jun-29 08:30N 47°12' W 001°42'2 3.8
2017-Jun-29 08:00N 47°12' W 001°39'1 1.7
2017-Jun-29 07:30N 47°12' W 001°38'0 0.0
2017-Jun-29 07:00N 47°12' W 001°38'1 2.0
2017-Jun-29 06:31N 47°12' W 001°39'612.0
2017-Jun-29 06:00N 47°13' W 001°48'611.2
2017-Jun-29 05:30N 47°17' W 001°54'5 2.1
2017-Jun-29 03:15N 47°17' W 002°01'0 0.0
2017-Jun-29 02:51N 47°17' W 002°01'0 0.0
2017-Jun-29 02:27N 47°17' W 002°01'0 0.0
2017-Jun-29 01:09N 47°17' W 002°01'0 0.0
2017-Jun-29 00:57N 47°17' W 002°01'0 0.0
2017-Jun-29 00:21N 47°17' W 002°01'0 0.0
2017-Jun-28 23:45N 47°17' W 002°01'0 0.0
2017-Jun-28 23:21N 47°17' W 002°01'0 0.0
2017-Jun-28 22:51N 47°17' W 002°01'0 0.0
2017-Jun-28 22:18N 47°17' W 002°01'0 0.0
2017-Jun-28 21:57N 47°17' W 002°01'0 0.0
2017-Jun-28 21:27N 47°17' W 002°01'0 0.0
2017-Jun-28 19:57N 47°17' W 002°01'0 0.0
2017-Jun-28 19:30N 47°17' W 002°01'0 0.0
2017-Jun-28 19:00N 47°17' W 002°01'0 0.0
2017-Jun-28 18:27N 47°17' W 002°01'0 0.0
2017-Jun-28 17:51N 47°17' W 002°01'0 0.0
2017-Jun-28 17:21N 47°17' W 002°01'0 0.0
2017-Jun-28 16:57N 47°17' W 002°01'0 0.0
2017-Jun-28 14:49N 47°17' W 002°01'2 6.2
2017-Jun-28 14:30N 47°17' W 001°58'3 2.6
2017-Jun-28 13:30N 47°17' W 001°55'0 0.9
2017-Jun-28 13:00N 47°17' W 001°54'1 1.5
2017-Jun-28 12:30N 47°17' W 001°55'0 0.0
2017-Jun-28 11:59N 47°17' W 001°55'1 1.2
2017-Jun-28 11:30N 47°17' W 001°54'1 1.2
2017-Jun-28 11:00N 47°17' W 001°55'3 5.5
2017-Jun-28 10:30N 47°16' W 001°51'5 9.3
2017-Jun-28 10:00N 47°12' W 001°46'1 1.0
2017-Jun-28 09:30N 47°12' W 001°46'2 4.8
2017-Jun-28 09:00N 47°12' W 001°42'3 5.0
2017-Jun-28 08:25N 47°12' W 001°38'0 0.1
2017-Jun-28 07:58N 47°12' W 001°38'0 0.1
2017-Jun-28 07:22N 47°12' W 001°38'1 3.4
2017-Jun-28 07:00N 47°12' W 001°40'4 6.9
2017-Jun-28 06:29N 47°12' W 001°45'2 3.7
2017-Jun-28 06:00N 47°13' W 001°48'510.7
2017-Jun-28 05:30N 47°17' W 001°53'5 5.5
2017-Jun-28 04:31N 47°17' W 002°01'0 0.0
2017-Jun-28 04:04N 47°17' W 002°01'0 0.0
2017-Jun-28 03:55N 47°17' W 002°01'0 0.0
2017-Jun-28 03:16N 47°17' W 002°01'0 0.0
2017-Jun-28 02:46N 47°17' W 002°01'0 0.0
2017-Jun-28 02:25N 47°17' W 002°01'0 0.0
2017-Jun-28 01:55N 47°17' W 002°01'0 0.0
2017-Jun-28 01:25N 47°17' W 002°01'0 0.0
2017-Jun-28 00:55N 47°17' W 002°01'0 0.0
2017-Jun-28 00:13N 47°17' W 002°01'0 0.0
2017-Jun-27 23:49N 47°17' W 002°01'0 0.0
2017-Jun-27 23:19N 47°17' W 002°01'0 0.0
2017-Jun-27 22:55N 47°17' W 002°01'0 0.0
2017-Jun-27 22:25N 47°17' W 002°01'0 0.0
2017-Jun-27 21:55N 47°17' W 002°01'0 0.0
2017-Jun-27 21:22N 47°17' W 002°01'0 0.0
2017-Jun-27 20:58N 47°17' W 002°01'0 0.0
2017-Jun-27 20:25N 47°17' W 002°01'0 0.0
2017-Jun-27 19:58N 47°17' W 002°01'0 0.0
2017-Jun-27 19:28N 47°17' W 002°01'0 0.0
2017-Jun-27 18:49N 47°17' W 002°01'0 0.0
2017-Jun-27 18:25N 47°17' W 002°01'0 0.0
2017-Jun-27 16:25N 47°17' W 002°01'0 0.0
2017-Jun-27 15:55N 47°17' W 002°01'0 0.0
2017-Jun-27 13:58N 47°17' W 002°01'2 3.3
2017-Jun-27 13:30N 47°18' W 002°03'5 6.9
2017-Jun-27 12:47N 47°17' W 002°10'2 6.3
2017-Jun-27 12:30N 47°16' W 002°12'0 0.4
2017-Jun-27 11:43N 47°16' W 002°12'0 0.2
2017-Jun-27 11:25N 47°16' W 002°12'0 0.2
2017-Jun-27 10:58N 47°16' W 002°12'0 0.1
2017-Jun-27 10:22N 47°16' W 002°12'0 0.2
2017-Jun-27 09:58N 47°16' W 002°12'0 0.1
2017-Jun-27 09:28N 47°16' W 002°12'0 0.0
2017-Jun-27 08:58N 47°16' W 002°12'0 0.0
2017-Jun-27 08:25N 47°16' W 002°12'0 0.2
2017-Jun-27 07:55N 47°16' W 002°12'0 0.3
2017-Jun-27 07:30N 47°16' W 002°12'0 0.3
2017-Jun-27 07:00N 47°16' W 002°12'0 0.7
2017-Jun-27 06:30N 47°16' W 002°12'4 8.3
2017-Jun-27 06:00N 47°18' W 002°06'4 7.0
2017-Jun-27 05:30N 47°17' W 002°01'0 0.0
2017-Jun-27 05:00N 47°17' W 002°01'0 0.0
2017-Jun-27 04:30N 47°17' W 002°01'0 0.0
2017-Jun-27 04:00N 47°17' W 002°01'0 0.0
2017-Jun-27 03:27N 47°17' W 002°01'0 0.0
2017-Jun-27 03:00N 47°17' W 002°01'0 0.0
2017-Jun-27 02:30N 47°17' W 002°01'0 0.0
2017-Jun-27 02:00N 47°17' W 002°01'0 0.0
2017-Jun-27 01:30N 47°17' W 002°01'0 0.0
2017-Jun-27 01:00N 47°17' W 002°01'0 0.0
2017-Jun-27 00:27N 47°17' W 002°01'0 0.0
2017-Jun-27 00:00N 47°17' W 002°01'0 0.0
2017-Jun-26 23:30N 47°17' W 002°01'0 0.0
2017-Jun-26 22:54N 47°17' W 002°01'0 0.0
2017-Jun-26 22:30N 47°17' W 002°01'0 0.0
2017-Jun-26 22:00N 47°17' W 002°01'0 0.0
2017-Jun-26 21:30N 47°17' W 002°01'0 0.0
2017-Jun-26 20:57N 47°17' W 002°01'0 0.0
2017-Jun-26 20:27N 47°17' W 002°01'0 0.0
2017-Jun-26 20:00N 47°17' W 002°01'0 0.0
2017-Jun-26 19:27N 47°17' W 002°01'0 0.0
2017-Jun-26 19:00N 47°17' W 002°01'0 0.0
2017-Jun-26 18:30N 47°17' W 002°01'0 0.0
2017-Jun-26 18:00N 47°17' W 002°01'0 0.0
2017-Jun-26 17:27N 47°17' W 002°01'0 0.0
2017-Jun-26 16:54N 47°17' W 002°01'0 0.0
2017-Jun-26 16:27N 47°17' W 002°01'0 0.0
2017-Jun-26 16:00N 47°17' W 002°01'0 0.0
2017-Jun-26 15:24N 47°17' W 002°01'0 0.0
2017-Jun-26 15:00N 47°17' W 002°01'0 0.0
2017-Jun-26 14:30N 47°17' W 002°01'0 0.0
2017-Jun-26 13:30N 47°17' W 002°01'0 0.0
2017-Jun-26 12:51N 47°17' W 002°01'0 0.5
2017-Jun-26 12:30N 47°17' W 002°01'3 5.5
2017-Jun-26 12:00N 47°18' W 002°05'1 2.0
2017-Jun-26 11:30N 47°18' W 002°07'0 0.3
2017-Jun-26 10:57N 47°18' W 002°07'0 0.0
2017-Jun-26 10:30N 47°18' W 002°07'0 0.3
2017-Jun-26 10:00N 47°18' W 002°07'0 0.3
2017-Jun-26 09:29N 47°18' W 002°07'0 0.3
2017-Jun-26 08:55N 47°18' W 002°07'0 0.1
2017-Jun-26 08:28N 47°18' W 002°07'0 0.1
2017-Jun-26 08:00N 47°18' W 002°07'0 0.1
2017-Jun-26 07:30N 47°18' W 002°07'0 0.1
2017-Jun-26 06:58N 47°18' W 002°07'0 0.2
2017-Jun-26 06:27N 47°18' W 002°07'0 0.1
2017-Jun-26 06:01N 47°18' W 002°07'1 1.2
2017-Jun-26 05:30N 47°18' W 002°06'3 6.5
2017-Jun-26 04:59N 47°17' W 002°01'0 0.0
2017-Jun-26 04:29N 47°17' W 002°01'0 0.0
2017-Jun-26 03:59N 47°17' W 002°01'0 0.0
2017-Jun-26 03:29N 47°17' W 002°01'0 0.0
2017-Jun-26 02:59N 47°17' W 002°01'0 0.0
2017-Jun-26 02:26N 47°17' W 002°01'0 0.0
2017-Jun-26 01:59N 47°17' W 002°01'0 0.0
2017-Jun-26 01:29N 47°17' W 002°01'0 0.0
2017-Jun-26 00:59N 47°17' W 002°01'0 0.0
2017-Jun-26 00:29N 47°17' W 002°01'0 0.0
2017-Jun-25 23:56N 47°17' W 002°01'0 0.0
2017-Jun-25 23:29N 47°17' W 002°01'0 0.0
2017-Jun-25 22:59N 47°17' W 002°01'0 0.0
2017-Jun-25 22:29N 47°17' W 002°01'0 0.0
2017-Jun-25 21:59N 47°17' W 002°01'0 0.0
2017-Jun-25 21:26N 47°17' W 002°01'0 0.0
2017-Jun-25 20:59N 47°17' W 002°01'0 0.0
2017-Jun-25 20:29N 47°17' W 002°01'0 0.0
2017-Jun-25 19:59N 47°17' W 002°01'0 0.0
2017-Jun-25 19:29N 47°17' W 002°01'0 0.0
2017-Jun-25 18:59N 47°17' W 002°01'0 0.0
2017-Jun-25 18:29N 47°17' W 002°01'0 0.0
2017-Jun-25 17:56N 47°17' W 002°01'0 0.0
2017-Jun-25 17:29N 47°17' W 002°01'0 0.0
2017-Jun-25 16:59N 47°17' W 002°01'0 0.0
2017-Jun-25 16:29N 47°17' W 002°01'0 0.0
2017-Jun-25 15:59N 47°17' W 002°01'0 0.0
2017-Jun-25 15:29N 47°17' W 002°01'0 0.0
2017-Jun-25 14:59N 47°17' W 002°01'0 0.0
2017-Jun-25 14:23N 47°17' W 002°01'0 0.0
2017-Jun-25 13:29N 47°17' W 002°01'0 0.0
2017-Jun-25 12:59N 47°17' W 002°01'0 0.0
2017-Jun-25 12:30N 47°17' W 002°01'3 6.7
2017-Jun-25 12:00N 47°18' W 002°06'0 1.0
2017-Jun-25 11:30N 47°18' W 002°07'0 0.3
2017-Jun-25 11:00N 47°18' W 002°06'0 0.0
2017-Jun-25 10:29N 47°18' W 002°06'0 0.3
2017-Jun-25 09:59N 47°18' W 002°07'0 0.3
2017-Jun-25 09:30N 47°18' W 002°07'0 0.2
2017-Jun-25 09:01N 47°18' W 002°07'0 0.0
2017-Jun-25 08:31N 47°18' W 002°07'0 0.0
2017-Jun-25 08:01N 47°18' W 002°07'0 0.1
2017-Jun-25 07:30N 47°18' W 002°07'0 0.2
2017-Jun-25 06:52N 47°18' W 002°07'0 0.3
2017-Jun-25 06:29N 47°18' W 002°07'1 1.2
2017-Jun-25 05:59N 47°18' W 002°08'1 2.6
2017-Jun-25 05:30N 47°18' W 002°06'3 6.6
2017-Jun-25 05:00N 47°17' W 002°01'0 0.0
2017-Jun-25 04:30N 47°17' W 002°01'0 0.0
2017-Jun-25 03:57N 47°17' W 002°01'0 0.0
2017-Jun-25 03:27N 47°17' W 002°01'0 0.0
2017-Jun-25 03:00N 47°17' W 002°01'0 0.0
2017-Jun-25 02:24N 47°17' W 002°01'0 0.0
2017-Jun-25 02:00N 47°17' W 002°01'0 0.0
2017-Jun-25 01:30N 47°17' W 002°01'0 0.0
2017-Jun-25 01:00N 47°17' W 002°01'0 0.0
2017-Jun-25 00:30N 47°17' W 002°01'0 0.0
2017-Jun-24 23:54N 47°17' W 002°01'0 0.0
2017-Jun-24 23:27N 47°17' W 002°01'0 0.0
2017-Jun-24 23:00N 47°17' W 002°01'0 0.0
2017-Jun-24 22:30N 47°17' W 002°01'0 0.0
2017-Jun-24 21:57N 47°17' W 002°01'0 0.0
2017-Jun-24 21:30N 47°17' W 002°01'0 0.0
2017-Jun-24 20:57N 47°17' W 002°01'0 0.0
2017-Jun-24 20:30N 47°17' W 002°01'0 0.0
2017-Jun-24 19:57N 47°17' W 002°01'0 0.0
2017-Jun-24 19:30N 47°17' W 002°01'0 0.0
2017-Jun-24 19:00N 47°17' W 002°01'0 0.0
2017-Jun-24 18:30N 47°17' W 002°01'0 0.0
2017-Jun-24 17:57N 47°17' W 002°01'0 0.0
2017-Jun-24 17:27N 47°17' W 002°01'0 0.0
2017-Jun-24 16:57N 47°17' W 002°01'0 0.0
2017-Jun-24 16:27N 47°17' W 002°01'0 0.0
2017-Jun-24 16:00N 47°17' W 002°01'0 0.0
2017-Jun-24 15:27N 47°17' W 002°01'0 0.0
2017-Jun-24 15:00N 47°17' W 002°01'0 0.0
2017-Jun-24 14:00N 47°17' W 002°01'0 0.0
2017-Jun-24 13:30N 47°17' W 002°01'0 0.0
2017-Jun-24 12:57N 47°17' W 002°01'0 0.0
2017-Jun-24 11:54N 47°17' W 002°01'2 4.5
2017-Jun-24 11:30N 47°18' W 002°04'2 4.4
2017-Jun-24 11:00N 47°18' W 002°07'0 0.2
2017-Jun-24 10:27N 47°18' W 002°07'0 0.1
2017-Jun-24 10:00N 47°18' W 002°07'0 0.0
2017-Jun-24 09:30N 47°18' W 002°07'0 0.0
2017-Jun-24 08:59N 47°18' W 002°07'0 0.1
2017-Jun-24 08:30N 47°18' W 002°07'0 0.0
2017-Jun-24 08:00N 47°18' W 002°07'0 0.1
2017-Jun-24 07:29N 47°18' W 002°07'0 0.1
2017-Jun-24 06:56N 47°18' W 002°07'0 0.1
2017-Jun-24 06:29N 47°18' W 002°07'0 0.1
2017-Jun-24 05:58N 47°18' W 002°07'0 0.4
2017-Jun-24 05:30N 47°18' W 002°07'4 4.0
2017-Jun-24 04:33N 47°17' W 002°01'0 0.0
2017-Jun-24 04:15N 47°17' W 002°01'0 0.0
2017-Jun-24 03:09N 47°17' W 002°01'0 0.0
2017-Jun-24 02:57N 47°17' W 002°01'0 0.0
2017-Jun-24 02:30N 47°17' W 002°01'0 0.0
2017-Jun-24 01:54N 47°17' W 002°01'0 0.0
2017-Jun-24 01:30N 47°17' W 002°01'0 0.0
2017-Jun-24 00:57N 47°17' W 002°01'0 0.0
2017-Jun-24 00:24N 47°17' W 002°01'0 0.0
2017-Jun-23 23:48N 47°17' W 002°01'0 0.0
2017-Jun-23 23:27N 47°17' W 002°01'0 0.0
2017-Jun-23 22:54N 47°17' W 002°01'0 0.0
2017-Jun-23 20:00N 47°17' W 002°01'0 0.0
2017-Jun-23 19:12N 47°17' W 002°01'0 0.0
2017-Jun-23 18:54N 47°17' W 002°01'0 0.0
2017-Jun-23 18:24N 47°17' W 002°01'0 0.0
2017-Jun-23 17:54N 47°17' W 002°01'0 0.0
2017-Jun-23 17:24N 47°17' W 002°01'0 0.0
2017-Jun-23 16:45N 47°17' W 002°01'0 0.0
2017-Jun-23 16:30N 47°17' W 002°01'0 0.6
2017-Jun-23 15:58N 47°18' W 002°01'0 0.1
2017-Jun-23 15:28N 47°18' W 002°01'0 0.3
2017-Jun-23 15:00N 47°18' W 002°01'0 0.1
2017-Jun-23 11:41N 47°17' W 002°01'0 0.0
2017-Jun-23 10:41N 47°17' W 002°01'0 0.0
2017-Jun-23 09:32N 47°17' W 002°01'0 1.0
2017-Jun-23 09:29N 47°17' W 002°01'0 0.6
2017-Jun-23 08:58N 47°18' W 002°01'0 0.1
2017-Jun-23 08:19N 47°18' W 002°01'0 0.4
2017-Jun-23 07:57N 47°18' W 002°01'0 0.1
2017-Jun-23 07:27N 47°18' W 002°01'0 0.6
2017-Jun-23 07:00N 47°18' W 002°01'0 0.1
2017-Jun-23 06:30N 47°18' W 002°01'0 0.1
2017-Jun-23 06:00N 47°18' W 002°01'0 0.3
2017-Jun-23 05:30N 47°18' W 002°01'0 0.2
2017-Jun-23 04:21N 47°17' W 002°01'0 0.0
2017-Jun-23 04:00N 47°17' W 002°01'0 0.0
2017-Jun-23 03:30N 47°17' W 002°01'0 0.0
2017-Jun-23 03:00N 47°17' W 002°01'0 0.0
2017-Jun-23 02:30N 47°17' W 002°01'0 0.0
2017-Jun-23 02:00N 47°17' W 002°01'0 0.0
2017-Jun-23 00:48N 47°17' W 002°01'0 0.0
2017-Jun-22 16:22N 47°17' W 002°01'0 0.6
2017-Jun-22 15:54N 47°18' W 002°01'0 0.7
2017-Jun-22 15:30N 47°18' W 002°01'0 0.2
2017-Jun-22 14:58N 47°18' W 002°01'1 1.3
2017-Jun-22 14:30N 47°18' W 002°02'1 0.3
2017-Jun-22 12:39N 47°17' W 002°01'0 0.0
2017-Jun-22 12:27N 47°17' W 002°01'0 0.0
2017-Jun-22 11:57N 47°17' W 002°01'0 0.0
2017-Jun-22 11:15N 47°17' W 002°01'0 0.0
2017-Jun-22 10:57N 47°17' W 002°01'0 0.0
2017-Jun-22 09:15N 47°17' W 002°01'0 0.0
2017-Jun-22 09:00N 47°17' W 002°01'3 5.9
2017-Jun-22 08:30N 47°18' W 002°05'1 1.2
2017-Jun-22 07:54N 47°18' W 002°06'0 0.2
2017-Jun-22 07:30N 47°18' W 002°06'0 0.4
2017-Jun-22 07:00N 47°18' W 002°06'0 0.0
2017-Jun-22 06:30N 47°18' W 002°06'0 0.0
2017-Jun-22 06:01N 47°18' W 002°06'0 0.0
2017-Jun-22 05:30N 47°18' W 002°06'4 6.8
2017-Jun-22 04:58N 47°17' W 002°01'0 0.0
2017-Jun-22 04:28N 47°17' W 002°01'0 0.0
2017-Jun-22 03:58N 47°17' W 002°01'0 0.0
2017-Jun-22 03:28N 47°17' W 002°01'0 0.0
2017-Jun-22 02:58N 47°17' W 002°01'0 0.0
2017-Jun-22 02:28N 47°17' W 002°01'0 0.0
2017-Jun-22 01:55N 47°17' W 002°01'0 0.0
2017-Jun-22 01:28N 47°17' W 002°01'0 0.0
2017-Jun-22 00:49N 47°17' W 002°01'0 0.0
2017-Jun-22 00:28N 47°17' W 002°01'0 0.0
2017-Jun-21 23:58N 47°17' W 002°01'0 0.0
2017-Jun-21 23:28N 47°17' W 002°01'0 0.0
2017-Jun-21 22:58N 47°17' W 002°01'0 0.0
2017-Jun-21 22:25N 47°17' W 002°01'0 0.0
2017-Jun-21 21:58N 47°17' W 002°01'0 0.0
2017-Jun-21 21:28N 47°17' W 002°01'0 0.0
2017-Jun-21 20:58N 47°17' W 002°01'0 0.0
2017-Jun-21 20:25N 47°17' W 002°01'0 0.0
2017-Jun-21 19:55N 47°17' W 002°01'0 0.0
2017-Jun-21 19:28N 47°17' W 002°01'0 0.0
2017-Jun-21 18:58N 47°17' W 002°01'0 0.0
2017-Jun-21 18:28N 47°17' W 002°01'0 0.0
2017-Jun-21 17:37N 47°17' W 002°01'0 0.0
2017-Jun-21 17:28N 47°17' W 002°01'0 0.0
2017-Jun-21 16:52N 47°17' W 002°01'0 0.0
2017-Jun-21 16:30N 47°17' W 002°01'1 1.0
2017-Jun-21 16:00N 47°18' W 002°02'1 1.5
2017-Jun-21 15:26N 47°18' W 002°03'0 0.4
2017-Jun-21 14:58N 47°18' W 002°03'2 5.2
2017-Jun-21 14:30N 47°17' W 001°60'8 7.5
2017-Jun-21 13:29N 47°14' W 001°50'3 7.0
2017-Jun-21 13:00N 47°12' W 001°45'3 6.3
2017-Jun-21 12:31N 47°12' W 001°41'3 5.4
2017-Jun-21 12:00N 47°12' W 001°37'1 2.3
2017-Jun-21 11:31N 47°12' W 001°38'4 7.3
2017-Jun-21 11:00N 47°12' W 001°43'4 7.0
2017-Jun-21 10:30N 47°13' W 001°49'4 7.1
2017-Jun-21 10:00N 47°16' W 001°52'3 6.7
2017-Jun-21 09:30N 47°17' W 001°56'3 6.0
2017-Jun-21 09:00N 47°17' W 002°01'3 5.2
2017-Jun-21 08:30N 47°18' W 002°04'2 1.8
2017-Jun-21 07:37N 47°18' W 002°07'0 0.4
2017-Jun-21 07:28N 47°18' W 002°07'0 0.1
2017-Jun-21 07:00N 47°18' W 002°07'3 4.8
2017-Jun-21 06:29N 47°18' W 002°03'0 0.1
2017-Jun-21 05:55N 47°18' W 002°03'0 0.2
2017-Jun-21 05:30N 47°18' W 002°03'1 2.7
2017-Jun-21 04:58N 47°17' W 002°01'0 0.0
2017-Jun-21 04:28N 47°17' W 002°01'0 0.0
2017-Jun-21 03:58N 47°17' W 002°01'0 0.0
2017-Jun-21 03:28N 47°17' W 002°01'0 0.0
2017-Jun-21 02:58N 47°17' W 002°01'0 0.0
2017-Jun-21 02:28N 47°17' W 002°01'0 0.0
2017-Jun-21 01:58N 47°17' W 002°01'0 0.0
2017-Jun-21 01:28N 47°17' W 002°01'0 0.0
2017-Jun-21 00:58N 47°17' W 002°01'0 0.0
2017-Jun-21 00:28N 47°17' W 002°01'0 0.0
2017-Jun-20 23:52N 47°17' W 002°01'0 0.0
2017-Jun-20 23:28N 47°17' W 002°01'0 0.0
2017-Jun-20 22:55N 47°17' W 002°01'0 0.0
2017-Jun-20 22:28N 47°17' W 002°01'0 0.0
2017-Jun-20 21:58N 47°17' W 002°01'0 0.0
2017-Jun-20 21:28N 47°17' W 002°01'0 0.0
2017-Jun-20 20:55N 47°17' W 002°01'0 0.0
2017-Jun-20 20:28N 47°17' W 002°01'0 0.0
2017-Jun-20 19:58N 47°17' W 002°01'0 0.0
2017-Jun-20 19:28N 47°17' W 002°01'0 0.0
2017-Jun-20 10:19N 47°17' W 002°01'0 0.0
2017-Jun-20 09:04N 47°17' W 002°01'0 0.0
2017-Jun-20 08:55N 47°17' W 002°01'0 0.0
2017-Jun-20 08:28N 47°17' W 002°01'0 0.0
2017-Jun-20 07:58N 47°17' W 002°01'0 0.0
2017-Jun-20 07:25N 47°17' W 002°01'0 0.0
2017-Jun-20 06:58N 47°17' W 002°01'0 0.0
2017-Jun-20 06:25N 47°17' W 002°01'0 0.0
2017-Jun-20 05:55N 47°17' W 002°01'0 0.0
2017-Jun-20 05:25N 47°17' W 002°01'0 0.0
2017-Jun-20 04:49N 47°17' W 002°01'0 0.0
2017-Jun-20 04:25N 47°17' W 002°01'0 0.0
2017-Jun-20 03:55N 47°17' W 002°01'0 0.0
2017-Jun-20 03:28N 47°17' W 002°01'0 0.0
2017-Jun-20 02:58N 47°17' W 002°01'0 0.0
2017-Jun-20 01:58N 47°17' W 002°01'0 0.0
2017-Jun-20 01:28N 47°17' W 002°01'0 0.0
2017-Jun-20 00:55N 47°17' W 002°01'0 0.0
2017-Jun-20 00:16N 47°17' W 002°01'0 0.0
2017-Jun-19 23:52N 47°17' W 002°01'0 0.0
2017-Jun-19 23:28N 47°17' W 002°01'0 0.0
2017-Jun-19 22:58N 47°17' W 002°01'0 0.0
2017-Jun-19 22:28N 47°17' W 002°01'0 0.0
2017-Jun-19 21:58N 47°17' W 002°01'0 0.0
2017-Jun-19 21:28N 47°17' W 002°01'0 0.0
2017-Jun-19 20:58N 47°17' W 002°01'0 0.0
2017-Jun-19 20:28N 47°17' W 002°01'0 0.0
2017-Jun-19 19:58N 47°17' W 002°01'0 0.0
2017-Jun-19 19:28N 47°17' W 002°01'0 0.0
2017-Jun-19 18:49N 47°17' W 002°01'0 0.0
2017-Jun-19 18:16N 47°17' W 002°01'0 0.0
2017-Jun-19 17:49N 47°17' W 002°01'1 0.4
2017-Jun-19 15:52N 47°18' W 002°02'  

Dump ship's entire track history